Time;durP1;ratioP1;P1;durP2;ratioP2;P2;SDS_P1;SDS_P2;PMS_P1;PMS_P2;Temp;Humidity;BMP_temperature;BMP_pressure;BME280_temperature;BME280_humidity;BME280_pressure;Samples;Min_cycle;Max_cycle;Signal;HPM_P1;HPM_P2
2023/08/24 00:00:11;;;;;;;;;;;16.50;99.90;;;;;;5097270;28;19931;-45
2023/08/24 00:02:37;;;;;;;;;;;16.50;99.90;;;;;;5097059;28;19997;-44
2023/08/24 00:05:03;;;;;;;;;;;16.40;99.90;;;;;;5097277;28;19924;-45
2023/08/24 00:07:28;;;;;;;;;;;16.40;99.90;;;;;;5096181;28;19924;-45
2023/08/24 00:09:54;;;;;;;;;;;16.40;99.90;;;;;;5097141;28;19924;-45
2023/08/24 00:12:19;;;;;;;;;;;16.40;99.90;;;;;;5097066;28;19928;-44
2023/08/24 00:14:45;;;;;;;;;;;16.30;99.90;;;;;;5096962;28;19947;-45
2023/08/24 00:17:11;;;;;;;;;;;16.30;99.90;;;;;;5096510;28;19947;-44
2023/08/24 00:19:36;;;;;;;;;;;16.20;99.90;;;;;;5097006;28;19981;-45
2023/08/24 00:22:02;;;;;;;;;;;16.10;99.90;;;;;;5096918;28;19931;-45
2023/08/24 00:24:27;;;;;;;;;;;16.10;99.90;;;;;;5078845;28;19924;-45
2023/08/24 00:26:53;;;;;;;;;;;16.10;99.90;;;;;;5096835;28;20386;-45
2023/08/24 00:29:18;;;;;;;;;;;16.00;99.90;;;;;;5096456;28;20341;-44
2023/08/24 00:31:44;;;;;;;;;;;16.00;99.90;;;;;;5096598;28;19931;-44
2023/08/24 00:34:09;;;;;;;;;;;16.00;99.90;;;;;;5078825;28;19928;-45
2023/08/24 00:36:37;;;;;;;;;;;16.00;99.90;;;;;;5096634;28;19924;-45
2023/08/24 00:39:03;;;;;;;;;;;16.00;99.90;;;;;;5078589;28;19931;-44
2023/08/24 00:41:28;;;;;;;;;;;16.00;99.90;;;;;;5096623;28;19924;-44
2023/08/24 00:43:54;;;;;;;;;;;16.00;99.90;;;;;;5096424;28;20041;-44
2023/08/24 00:46:19;;;;;;;;;;;16.00;99.90;;;;;;5096305;28;20315;-44
2023/08/24 00:48:45;;;;;;;;;;;16.00;99.90;;;;;;5096121;28;20019;-44
2023/08/24 00:51:11;;;;;;;;;;;16.00;99.90;;;;;;5096374;28;19977;-45
2023/08/24 00:53:37;;;;;;;;;;;16.00;99.90;;;;;;5096237;28;19924;-44
2023/08/24 00:56:03;;;;;;;;;;;16.00;99.90;;;;;;5096263;28;19986;-44
2023/08/24 00:58:29;;;;;;;;;;;16.00;99.90;;;;;;5096040;28;19924;-44
2023/08/24 01:00:55;;;;;;;;;;;16.00;99.90;;;;;;5096164;28;20006;-45
2023/08/24 01:03:24;;;;;;;;;;;16.00;99.90;;;;;;5078166;28;19932;-44
2023/08/24 01:05:49;;;;;;;;;;;16.00;99.90;;;;;;5095902;28;20407;-45
2023/08/24 01:08:15;;;;;;;;;;;16.10;99.90;;;;;;5095868;28;19924;-44
2023/08/24 01:10:47;;;;;;;;;;;16.10;99.90;;;;;;5095974;28;19924;-44
2023/08/24 01:13:16;;;;;;;;;;;16.10;99.90;;;;;;5095972;28;20053;-45
2023/08/24 01:15:44;;;;;;;;;;;16.20;99.90;;;;;;5095663;28;20015;-45
2023/08/24 01:18:13;;;;;;;;;;;16.20;99.90;;;;;;5095796;28;19924;-44
2023/08/24 01:20:40;;;;;;;;;;;16.20;99.90;;;;;;5095786;28;19931;-44
2023/08/24 01:23:05;;;;;;;;;;;16.30;99.90;;;;;;5095760;28;19937;-44
2023/08/24 01:25:34;;;;;;;;;;;16.30;99.90;;;;;;5095774;28;19931;-44
2023/08/24 01:28:01;;;;;;;;;;;16.30;99.90;;;;;;5077371;28;20366;-45
2023/08/24 01:30:27;;;;;;;;;;;16.30;99.90;;;;;;5095389;28;19928;-45
2023/08/24 01:32:53;;;;;;;;;;;16.30;99.90;;;;;;5077557;28;19924;-45
2023/08/24 01:35:18;;;;;;;;;;;16.30;99.90;;;;;;5077570;28;19931;-45
2023/08/24 01:37:44;;;;;;;;;;;16.30;99.90;;;;;;5095204;28;19924;-45
2023/08/24 01:40:20;;;;;;;;;;;16.30;99.90;;;;;;5095571;28;19928;-44
2023/08/24 01:42:49;;;;;;;;;;;16.30;99.90;;;;;;5076840;28;19969;-44
2023/08/24 01:45:15;;;;;;;;;;;16.30;99.90;;;;;;5095364;28;20344;-44
2023/08/24 01:47:41;;;;;;;;;;;16.30;99.90;;;;;;5095381;28;20256;-44
2023/08/24 01:50:07;;;;;;;;;;;16.20;99.90;;;;;;5095483;28;19931;-46
2023/08/24 01:52:33;;;;;;;;;;;16.20;99.90;;;;;;5095299;28;19924;-45
2023/08/24 01:54:59;;;;;;;;;;;16.20;99.90;;;;;;5094971;28;19924;-45
2023/08/24 01:57:25;;;;;;;;;;;16.20;99.90;;;;;;5094796;28;20286;-45
2023/08/24 01:59:50;;;;;;;;;;;16.20;99.90;;;;;;5060530;28;19932;-46
2023/08/24 02:02:16;;;;;;;;;;;16.20;99.90;;;;;;5094958;28;19939;-47
2023/08/24 02:04:42;;;;;;;;;;;16.20;99.90;;;;;;5077524;28;19928;-44
2023/08/24 02:07:08;;;;;;;;;;;16.20;99.90;;;;;;5094769;28;20007;-45
2023/08/24 02:09:33;;;;;;;;;;;16.20;99.90;;;;;;5076950;28;20290;-45
2023/08/24 02:11:59;;;;;;;;;;;16.20;99.90;;;;;;5094730;28;19928;-47
2023/08/24 02:14:24;;;;;;;;;;;16.20;99.90;;;;;;5094794;28;19928;-46
2023/08/24 02:16:50;;;;;;;;;;;16.20;99.90;;;;;;5094733;28;20359;-47
2023/08/24 02:19:15;;;;;;;;;;;16.20;99.90;;;;;;5094685;28;20421;-45
2023/08/24 02:21:41;;;;;;;;;;;16.20;99.90;;;;;;5094650;28;19935;-45
2023/08/24 02:24:07;;;;;;;;;;;16.20;99.90;;;;;;5076703;28;19924;-44
2023/08/24 02:26:32;;;;;;;;;;;16.20;99.90;;;;;;5094278;28;19925;-45
2023/08/24 02:28:58;;;;;;;;;;;16.10;99.90;;;;;;5094512;28;20275;-44
2023/08/24 02:31:23;;;;;;;;;;;16.20;99.90;;;;;;5094561;28;19968;-44
2023/08/24 02:33:49;;;;;;;;;;;16.20;99.90;;;;;;5094317;28;19923;-44
2023/08/24 02:36:15;;;;;;;;;;;16.20;99.90;;;;;;5094326;28;19924;-44
2023/08/24 02:38:40;;;;;;;;;;;16.20;99.90;;;;;;5043338;28;19928;-44
2023/08/24 02:41:07;;;;;;;;;;;16.20;99.90;;;;;;5076249;28;19924;-45
2023/08/24 02:43:33;;;;;;;;;;;16.20;99.90;;;;;;5076400;28;20363;-45
2023/08/24 02:46:03;;;;;;;;;;;16.20;99.90;;;;;;5094778;28;19924;-45
2023/08/24 02:48:29;;;;;;;;;;;16.20;99.90;;;;;;5094108;28;19930;-45
2023/08/24 02:50:54;;;;;;;;;;;16.20;99.90;;;;;;5094105;28;19924;-44
2023/08/24 02:53:20;;;;;;;;;;;16.10;99.90;;;;;;5094078;28;19941;-44
2023/08/24 02:55:45;;;;;;;;;;;16.10;99.90;;;;;;5093950;28;19931;-44
2023/08/24 02:58:11;;;;;;;;;;;16.00;99.90;;;;;;5059775;28;19928;-44
2023/08/24 03:00:39;;;;;;;;;;;16.00;99.90;;;;;;5094254;28;19924;-45
2023/08/24 03:03:05;;;;;;;;;;;16.00;99.90;;;;;;5094134;28;19924;-45
2023/08/24 03:05:32;;;;;;;;;;;16.00;99.90;;;;;;5093971;28;19924;-44
2023/08/24 03:07:58;;;;;;;;;;;16.00;99.90;;;;;;5076036;28;19932;-45
2023/08/24 03:10:23;;;;;;;;;;;16.00;99.90;;;;;;5094076;28;19924;-44
2023/08/24 03:12:49;;;;;;;;;;;15.90;99.90;;;;;;5076883;28;19946;-44
2023/08/24 03:15:15;;;;;;;;;;;16.00;99.90;;;;;;5094113;28;20379;-44
2023/08/24 03:17:41;;;;;;;;;;;16.00;99.90;;;;;;5094112;28;19924;-45
2023/08/24 03:20:07;;;;;;;;;;;16.00;99.90;;;;;;5093906;28;19930;-44
2023/08/24 03:22:32;;;;;;;;;;;16.00;99.90;;;;;;5076267;28;19928;-45
2023/08/24 03:24:58;;;;;;;;;;;16.00;99.90;;;;;;5093972;28;20389;-45
2023/08/24 03:27:23;;;;;;;;;;;16.00;99.90;;;;;;5093913;28;19928;-44
2023/08/24 03:29:51;;;;;;;;;;;16.00;99.90;;;;;;5075917;28;19924;-45
2023/08/24 03:32:17;;;;;;;;;;;16.00;99.90;;;;;;5094014;28;20356;-44
2023/08/24 03:34:43;;;;;;;;;;;16.00;99.90;;;;;;5094137;28;19959;-44
2023/08/24 03:37:08;;;;;;;;;;;16.00;99.90;;;;;;5093755;28;20295;-44
2023/08/24 03:39:36;;;;;;;;;;;15.90;99.90;;;;;;5093697;28;20053;-45
2023/08/24 03:42:02;;;;;;;;;;;16.00;99.90;;;;;;5093835;28;19963;-44
2023/08/24 03:44:27;;;;;;;;;;;16.00;99.90;;;;;;5094061;28;19970;-44
2023/08/24 03:46:53;;;;;;;;;;;16.00;99.90;;;;;;5093733;28;19941;-45
2023/08/24 03:49:18;;;;;;;;;;;16.00;99.90;;;;;;5093734;28;19924;-44
2023/08/24 03:51:44;;;;;;;;;;;16.00;99.90;;;;;;5093672;28;19924;-44
2023/08/24 03:54:09;;;;;;;;;;;16.00;99.90;;;;;;5075749;28;20019;-45
2023/08/24 03:56:35;;;;;;;;;;;16.10;99.90;;;;;;5093962;28;20364;-44
2023/08/24 03:59:00;;;;;;;;;;;16.00;99.90;;;;;;5075960;28;20002;-44
2023/08/24 04:01:26;;;;;;;;;;;16.10;99.90;;;;;;5094034;28;19924;-44
2023/08/24 04:03:51;;;;;;;;;;;16.10;99.90;;;;;;5093607;28;20417;-44
2023/08/24 04:06:19;;;;;;;;;;;16.10;99.90;;;;;;5078376;28;20291;-44
2023/08/24 04:08:44;;;;;;;;;;;16.10;99.90;;;;;;5096975;28;20283;-44
2023/08/24 04:11:10;;;;;;;;;;;16.10;99.90;;;;;;5097201;28;19924;-45
2023/08/24 04:13:36;;;;;;;;;;;16.10;99.90;;;;;;5097107;28;19924;-44
2023/08/24 04:16:01;;;;;;;;;;;16.10;99.90;;;;;;5097516;28;19930;-45
2023/08/24 04:18:27;;;;;;;;;;;16.10;99.90;;;;;;5096757;28;20371;-44
2023/08/24 04:20:53;;;;;;;;;;;16.10;99.90;;;;;;5096984;28;20328;-45
2023/08/24 04:23:23;;;;;;;;;;;16.10;99.90;;;;;;5096759;28;19924;-44
2023/08/24 04:25:48;;;;;;;;;;;16.10;99.90;;;;;;5096898;28;20386;-44
2023/08/24 04:28:14;;;;;;;;;;;16.10;99.90;;;;;;5096608;28;19924;-44
2023/08/24 04:30:39;;;;;;;;;;;16.10;99.90;;;;;;5096964;28;19928;-44
2023/08/24 04:33:05;;;;;;;;;;;16.10;99.90;;;;;;5096692;28;20438;-44
2023/08/24 04:35:33;;;;;;;;;;;16.10;99.90;;;;;;5096543;28;20337;-44
2023/08/24 04:37:59;;;;;;;;;;;16.10;99.90;;;;;;5096694;28;19924;-44
2023/08/24 04:40:24;;;;;;;;;;;16.10;99.90;;;;;;5096602;28;20330;-44
2023/08/24 04:42:50;;;;;;;;;;;16.10;99.90;;;;;;5096633;28;19983;-45
2023/08/24 04:45:15;;;;;;;;;;;16.10;99.90;;;;;;5096542;28;19924;-45
2023/08/24 04:47:41;;;;;;;;;;;16.00;99.90;;;;;;5096398;28;19975;-44
2023/08/24 04:50:07;;;;;;;;;;;16.00;99.90;;;;;;5078239;28;19977;-44
2023/08/24 04:52:32;;;;;;;;;;;15.90;99.90;;;;;;5096176;28;19930;-45
2023/08/24 04:54:58;;;;;;;;;;;15.90;99.90;;;;;;5096423;28;20291;-44
2023/08/24 04:57:23;;;;;;;;;;;15.90;99.90;;;;;;5096477;28;19971;-45
2023/08/24 04:59:49;;;;;;;;;;;15.90;99.90;;;;;;5096241;28;19924;-45
2023/08/24 05:02:14;;;;;;;;;;;15.80;99.90;;;;;;5096143;28;20401;-45
2023/08/24 05:04:40;;;;;;;;;;;15.80;99.90;;;;;;5096028;28;19927;-44
2023/08/24 05:07:05;;;;;;;;;;;15.80;99.90;;;;;;5061481;28;19924;-44
2023/08/24 05:09:31;;;;;;;;;;;15.80;99.90;;;;;;5095862;28;19924;-45
2023/08/24 05:11:57;;;;;;;;;;;15.80;99.90;;;;;;5096067;28;19924;-45
2023/08/24 05:14:22;;;;;;;;;;;15.80;99.90;;;;;;5095944;28;19931;-45
2023/08/24 05:16:48;;;;;;;;;;;15.80;99.90;;;;;;5094874;28;19932;-44
2023/08/24 05:19:13;;;;;;;;;;;15.80;99.90;;;;;;5095948;28;19950;-45
2023/08/24 05:21:39;;;;;;;;;;;15.90;99.90;;;;;;5077736;28;19924;-44
2023/08/24 05:24:04;;;;;;;;;;;15.80;99.90;;;;;;5095465;28;19925;-45
2023/08/24 05:26:30;;;;;;;;;;;15.90;99.90;;;;;;5096044;28;20018;-44
2023/08/24 05:28:56;;;;;;;;;;;15.90;99.90;;;;;;5078058;28;19928;-44
2023/08/24 05:31:21;;;;;;;;;;;15.90;99.90;;;;;;5077919;28;20027;-44
2023/08/24 05:33:47;;;;;;;;;;;15.90;99.90;;;;;;5077494;28;19924;-46
2023/08/24 05:36:13;;;;;;;;;;;15.90;99.90;;;;;;5095278;28;19931;-46
2023/08/24 05:38:38;;;;;;;;;;;15.90;99.90;;;;;;5095269;28;19924;-47
2023/08/24 05:41:04;;;;;;;;;;;16.00;99.90;;;;;;5095433;28;19924;-45
2023/08/24 05:43:29;;;;;;;;;;;16.00;99.90;;;;;;5077547;28;19924;-48
2023/08/24 05:45:56;;;;;;;;;;;16.00;99.90;;;;;;5095271;28;20236;-47
2023/08/24 05:48:21;;;;;;;;;;;16.10;99.90;;;;;;5094158;28;19931;-45
2023/08/24 05:50:47;;;;;;;;;;;16.20;99.90;;;;;;5095043;28;19924;-45
2023/08/24 05:53:13;;;;;;;;;;;16.20;99.90;;;;;;5095033;28;19931;-46
2023/08/24 05:55:38;;;;;;;;;;;16.30;99.90;;;;;;5095189;28;19924;-50
2023/08/24 05:58:04;;;;;;;;;;;16.30;99.90;;;;;;5077164;28;20310;-46
2023/08/24 06:00:29;;;;;;;;;;;16.40;99.90;;;;;;5094901;28;20457;-48
2023/08/24 06:02:55;;;;;;;;;;;16.40;99.90;;;;;;5095157;28;19924;-48
2023/08/24 06:05:21;;;;;;;;;;;16.50;99.90;;;;;;5077007;28;20436;-47
2023/08/24 06:07:46;;;;;;;;;;;16.50;99.90;;;;;;5094704;28;19930;-49
2023/08/24 06:10:12;;;;;;;;;;;16.80;99.90;;;;;;5060405;28;19924;-45
2023/08/24 06:12:37;;;;;;;;;;;17.60;99.90;;;;;;5094777;28;19924;-47
2023/08/24 06:15:04;;;;;;;;;;;18.30;99.90;;;;;;5077043;28;19932;-47
2023/08/24 06:17:30;;;;;;;;;;;18.60;99.90;;;;;;5094865;28;19971;-47
2023/08/24 06:19:55;;;;;;;;;;;18.50;99.90;;;;;;5094692;28;19982;-47
2023/08/24 06:22:21;;;;;;;;;;;18.40;99.90;;;;;;5076828;28;19925;-47
2023/08/24 06:24:47;;;;;;;;;;;18.30;99.90;;;;;;5094608;28;19924;-45
2023/08/24 06:27:12;;;;;;;;;;;18.20;99.90;;;;;;5094377;28;19924;-45
2023/08/24 06:29:42;;;;;;;;;;;18.10;99.90;;;;;;5094273;28;19932;-45
2023/08/24 06:32:07;;;;;;;;;;;18.00;99.90;;;;;;5094500;28;19924;-45
2023/08/24 06:34:33;;;;;;;;;;;17.90;99.90;;;;;;5094420;28;19931;-45
2023/08/24 06:37:00;;;;;;;;;;;17.90;99.90;;;;;;5076352;28;19924;-45
2023/08/24 06:39:26;;;;;;;;;;;17.80;99.90;;;;;;5094449;28;19924;-45
2023/08/24 06:41:51;;;;;;;;;;;17.80;99.90;;;;;;5094619;28;19977;-45
2023/08/24 06:44:17;;;;;;;;;;;17.70;99.90;;;;;;5094317;28;19924;-45
2023/08/24 06:46:42;;;;;;;;;;;17.80;99.90;;;;;;5094204;28;19924;-45
2023/08/24 06:49:08;;;;;;;;;;;17.80;99.90;;;;;;5094266;28;19931;-45
2023/08/24 06:51:34;;;;;;;;;;;17.90;99.90;;;;;;5094245;28;19977;-46
2023/08/24 06:53:59;;;;;;;;;;;17.90;99.90;;;;;;5094260;28;19924;-45
2023/08/24 06:56:25;;;;;;;;;;;17.90;99.90;;;;;;5076484;28;19931;-45
2023/08/24 06:58:50;;;;;;;;;;;18.00;99.90;;;;;;5094216;28;19935;-45
2023/08/24 07:01:16;;;;;;;;;;;18.00;99.90;;;;;;5076309;28;19974;-45
2023/08/24 07:03:41;;;;;;;;;;;18.00;99.90;;;;;;5076175;28;19936;-45
2023/08/24 07:06:07;;;;;;;;;;;18.00;99.90;;;;;;5093875;28;19931;-45
2023/08/24 07:08:34;;;;;;;;;;;18.10;99.90;;;;;;5094471;28;19930;-46
2023/08/24 07:10:59;;;;;;;;;;;18.10;99.90;;;;;;5094120;28;20294;-46
2023/08/24 07:13:26;;;;;;;;;;;18.20;99.90;;;;;;5076568;28;19930;-46
2023/08/24 07:15:52;;;;;;;;;;;18.20;99.90;;;;;;5094106;28;19924;-45
2023/08/24 07:18:17;;;;;;;;;;;18.30;99.90;;;;;;5094077;28;20244;-45
2023/08/24 07:20:43;;;;;;;;;;;18.30;99.90;;;;;;5093726;28;19946;-45
2023/08/24 07:23:08;;;;;;;;;;;18.40;99.90;;;;;;5076797;28;19930;-45
2023/08/24 07:25:34;;;;;;;;;;;18.40;99.90;;;;;;5076248;28;20300;-46
2023/08/24 07:28:00;;;;;;;;;;;18.50;99.90;;;;;;5075774;28;20135;-46
2023/08/24 07:30:26;;;;;;;;;;;18.50;99.90;;;;;;5093949;28;20310;-45
2023/08/24 07:32:52;;;;;;;;;;;18.50;99.90;;;;;;5092653;28;20366;-45
2023/08/24 07:35:20;;;;;;;;;;;18.60;99.90;;;;;;5093620;28;19947;-46
2023/08/24 07:37:47;;;;;;;;;;;18.70;99.90;;;;;;5093842;28;19924;-46
2023/08/24 07:40:13;;;;;;;;;;;18.70;99.90;;;;;;5077206;28;20316;-45
2023/08/24 07:42:45;;;;;;;;;;;18.80;99.90;;;;;;5097900;28;19924;-46
2023/08/24 07:45:11;;;;;;;;;;;18.90;99.90;;;;;;5097600;28;19928;-45
2023/08/24 07:47:37;;;;;;;;;;;19.00;99.90;;;;;;5097535;28;20450;-45
2023/08/24 07:50:03;;;;;;;;;;;19.00;99.90;;;;;;5097593;28;19964;-46
2023/08/24 07:52:28;;;;;;;;;;;19.00;99.90;;;;;;5097702;28;20375;-45
2023/08/24 07:54:55;;;;;;;;;;;19.10;99.90;;;;;;5097204;28;19931;-45
2023/08/24 07:57:20;;;;;;;;;;;19.10;99.90;;;;;;5097473;28;19928;-46
2023/08/24 07:59:46;;;;;;;;;;;19.10;99.90;;;;;;5079248;28;19990;-45
2023/08/24 08:02:12;;;;;;;;;;;19.10;99.90;;;;;;5097256;28;19924;-46
2023/08/24 08:04:37;;;;;;;;;;;19.30;99.90;;;;;;5097218;28;19975;-45
2023/08/24 08:07:03;;;;;;;;;;;19.30;99.90;;;;;;5097265;28;19924;-45
2023/08/24 08:09:28;;;;;;;;;;;19.30;99.90;;;;;;5097005;28;20417;-45
2023/08/24 08:11:54;;;;;;;;;;;19.40;99.90;;;;;;5079150;28;19971;-45
2023/08/24 08:14:20;;;;;;;;;;;19.40;99.90;;;;;;5097182;28;20453;-46
2023/08/24 08:16:45;;;;;;;;;;;19.50;99.90;;;;;;5097083;28;20018;-45
2023/08/24 08:19:11;;;;;;;;;;;19.50;99.90;;;;;;5096642;28;19924;-45
2023/08/24 08:21:36;;;;;;;;;;;19.60;99.90;;;;;;5097026;28;19932;-45
2023/08/24 08:24:02;;;;;;;;;;;19.60;99.90;;;;;;5096848;28;19924;-45
2023/08/24 08:26:28;;;;;;;;;;;19.70;99.90;;;;;;5096815;28;19924;-45
2023/08/24 08:28:54;;;;;;;;;;;19.80;99.90;;;;;;5096681;28;19931;-45
2023/08/24 08:31:20;;;;;;;;;;;19.80;99.90;;;;;;5096702;28;19928;-45
2023/08/24 08:33:45;;;;;;;;;;;19.80;99.90;;;;;;5078856;28;19930;-46
2023/08/24 08:36:11;;;;;;;;;;;19.90;99.90;;;;;;5096716;28;20256;-46
2023/08/24 08:38:37;;;;;;;;;;;19.90;99.90;;;;;;5096649;28;19953;-46
2023/08/24 08:41:03;;;;;;;;;;;20.00;99.90;;;;;;5096634;28;19985;-45
2023/08/24 08:43:32;;;;;;;;;;;20.00;99.90;;;;;;5096481;28;19924;-45
2023/08/24 08:45:59;;;;;;;;;;;20.00;99.90;;;;;;5096489;28;20394;-46
2023/08/24 08:48:25;;;;;;;;;;;20.10;99.90;;;;;;5096191;28;19924;-45
2023/08/24 08:50:51;;;;;;;;;;;20.10;99.90;;;;;;5096257;28;19931;-45
2023/08/24 08:53:17;;;;;;;;;;;20.10;99.90;;;;;;5096388;28;19928;-45
2023/08/24 08:55:43;;;;;;;;;;;20.20;99.90;;;;;;5096389;28;19924;-45
2023/08/24 08:58:08;;;;;;;;;;;20.20;99.90;;;;;;5078189;28;20379;-45
2023/08/24 09:00:35;;;;;;;;;;;20.30;99.90;;;;;;5078343;28;20053;-45
2023/08/24 09:03:01;;;;;;;;;;;20.40;99.90;;;;;;5095986;28;20043;-45
2023/08/24 09:05:26;;;;;;;;;;;20.40;99.90;;;;;;5078341;28;19928;-45
2023/08/24 09:07:53;;;;;;;;;;;20.40;99.90;;;;;;5095835;28;20256;-46
2023/08/24 09:10:19;;;;;;;;;;;20.40;99.90;;;;;;5078924;28;20271;-45
2023/08/24 09:12:44;;;;;;;;;;;20.40;99.90;;;;;;5095827;28;19931;-45
2023/08/24 09:15:10;;;;;;;;;;;20.40;99.90;;;;;;5078074;28;19928;-45
2023/08/24 09:17:36;;;;;;;;;;;20.40;99.90;;;;;;5095423;28;20428;-46
2023/08/24 09:20:07;;;;;;;;;;;20.50;99.90;;;;;;5095440;28;20321;-45
2023/08/24 09:22:41;;;;;;;;;;;20.50;99.90;;;;;;5095835;28;19924;-45
2023/08/24 09:25:08;;;;;;;;;;;20.60;99.90;;;;;;5096035;28;19933;-45
2023/08/24 09:27:34;;;;;;;;;;;20.60;99.90;;;;;;5095663;28;19924;-46
2023/08/24 09:30:00;;;;;;;;;;;20.70;99.90;;;;;;5095648;28;20397;-45
2023/08/24 09:32:29;;;;;;;;;;;20.80;99.90;;;;;;5095893;28;19947;-46
2023/08/24 09:34:54;;;;;;;;;;;20.90;99.90;;;;;;5095592;28;19931;-46
2023/08/24 09:37:20;;;;;;;;;;;20.90;99.90;;;;;;5077666;28;20291;-46
2023/08/24 09:39:46;;;;;;;;;;;20.90;99.90;;;;;;5095306;28;19971;-46
2023/08/24 09:42:12;;;;;;;;;;;21.00;99.90;;;;;;5095259;28;19997;-49
2023/08/24 09:44:42;;;;;;;;;;;21.00;99.90;;;;;;5095276;28;19924;-46
2023/08/24 09:47:11;;;;;;;;;;;21.00;99.90;;;;;;5077214;28;20026;-47
2023/08/24 09:49:37;;;;;;;;;;;21.00;99.90;;;;;;5077488;28;20017;-47
2023/08/24 09:52:06;;;;;;;;;;;21.10;99.90;;;;;;5095248;28;19990;-44
2023/08/24 09:54:35;;;;;;;;;;;21.00;99.90;;;;;;5095056;28;20394;-45
2023/08/24 09:57:02;;;;;;;;;;;21.00;99.90;;;;;;5095098;28;19928;-46
2023/08/24 09:59:29;;;;;;;;;;;21.00;99.90;;;;;;5095091;28;19931;-47
2023/08/24 10:01:56;;;;;;;;;;;21.00;99.90;;;;;;5094817;28;20366;-46
2023/08/24 10:04:28;;;;;;;;;;;21.00;99.90;;;;;;5076787;28;20360;-46
2023/08/24 10:07:05;;;;;;;;;;;21.00;99.90;;;;;;5094790;28;19978;-46
2023/08/24 10:09:33;;;;;;;;;;;21.00;99.90;;;;;;5094761;28;20061;-46
2023/08/24 10:12:02;;;;;;;;;;;21.00;99.90;;;;;;5094534;28;19947;-46
2023/08/24 10:14:32;;;;;;;;;;;21.00;99.90;;;;;;5094912;28;19997;-47
2023/08/24 10:16:57;;;;;;;;;;;21.10;99.90;;;;;;5076916;28;20425;-46
2023/08/24 10:19:24;;;;;;;;;;;21.10;99.90;;;;;;5070970;28;19974;-49
2023/08/24 10:21:53;;;;;;;;;;;21.10;99.90;;;;;;5074348;28;20007;-47
2023/08/24 10:24:20;;;;;;;;;;;21.10;99.90;;;;;;5074169;28;19925;-46
2023/08/24 10:26:47;;;;;;;;;;;21.10;99.90;;;;;;5074294;28;20363;-47
2023/08/24 10:29:13;;;;;;;;;;;21.10;99.90;;;;;;5074462;28;19932;-47
2023/08/24 10:31:40;;;;;;;;;;;21.10;99.90;;;;;;5074577;28;19924;-48
2023/08/24 10:34:06;;;;;;;;;;;21.00;99.90;;;;;;5073622;28;19931;-48
2023/08/24 10:36:31;;;;;;;;;;;21.00;99.90;;;;;;5073248;28;20287;-46
2023/08/24 10:39:03;;;;;;;;;;;21.00;99.90;;;;;;5073940;28;19928;-47
2023/08/24 10:41:28;;;;;;;;;;;21.00;99.90;;;;;;5073354;28;20489;-45
2023/08/24 10:44:04;;;;;;;;;;;21.00;99.90;;;;;;5074538;28;19924;-45
2023/08/24 10:46:34;;;;;;;;;;;21.00;99.90;;;;;;5074147;28;20019;-45
2023/08/24 10:49:00;;;;;;;;;;;21.00;99.90;;;;;;5074044;28;20287;-47
2023/08/24 10:51:30;;;;;;;;;;;21.00;99.90;;;;;;5074069;28;19925;-46
2023/08/24 10:53:56;;;;;;;;;;;20.90;99.90;;;;;;5073901;28;19932;-46
2023/08/24 10:56:29;;;;;;;;;;;21.00;99.90;;;;;;5074277;28;19931;-46
2023/08/24 10:59:17;;;;;;;;;;;20.90;99.90;;;;;;5074350;28;19932;-46
2023/08/24 11:02:03;;;;;;;;;;;20.90;99.90;;;;;;5074056;28;20307;-46
2023/08/24 11:04:29;;;;;;;;;;;20.90;99.90;;;;;;5074410;28;19978;-46
2023/08/24 11:06:57;;;;;;;;;;;20.90;99.90;;;;;;5073917;28;20364;-46
2023/08/24 11:09:23;;;;;;;;;;;20.90;99.90;;;;;;5072998;28;20371;-46
2023/08/24 11:12:15;;;;;;;;;;;20.80;99.90;;;;;;5073750;28;19925;-46
2023/08/24 11:14:58;;;;;;;;;;;20.80;99.90;;;;;;5070580;28;20073;-46
2023/08/24 11:17:29;;;;;;;;;;;20.80;99.90;;;;;;5077020;28;20000;-47
2023/08/24 11:19:54;;;;;;;;;;;20.90;99.90;;;;;;5087005;28;20248;-47
2023/08/24 11:22:21;;;;;;;;;;;20.80;99.90;;;;;;5097978;28;19934;-47
2023/08/24 11:24:47;;;;;;;;;;;20.90;99.90;;;;;;5097819;28;20391;-48
2023/08/24 11:27:12;;;;;;;;;;;20.90;99.90;;;;;;5097899;28;20282;-47
2023/08/24 11:29:38;;;;;;;;;;;20.90;99.90;;;;;;5097888;28;19931;-47
2023/08/24 11:32:04;;;;;;;;;;;20.90;99.90;;;;;;5080485;28;19927;-47
2023/08/24 11:34:30;;;;;;;;;;;20.90;99.90;;;;;;5097883;28;19985;-46
2023/08/24 11:36:55;;;;;;;;;;;20.90;99.90;;;;;;5097753;28;20283;-47
2023/08/24 11:39:31;;;;;;;;;;;20.90;99.90;;;;;;5097520;28;19924;-47
2023/08/24 11:42:00;;;;;;;;;;;20.90;99.90;;;;;;5097762;28;19924;-47
2023/08/24 11:44:26;;;;;;;;;;;20.90;99.90;;;;;;5079784;28;19924;-46
2023/08/24 11:46:52;;;;;;;;;;;20.90;99.90;;;;;;5097530;28;19924;-46
2023/08/24 11:49:17;;;;;;;;;;;21.00;99.90;;;;;;5097833;28;19924;-47
2023/08/24 11:51:43;;;;;;;;;;;21.00;99.90;;;;;;5097556;28;20367;-45
2023/08/24 11:54:09;;;;;;;;;;;21.00;99.90;;;;;;5097453;28;20390;-45
2023/08/24 11:56:40;;;;;;;;;;;21.00;99.90;;;;;;5097584;28;19930;-45
2023/08/24 11:59:06;;;;;;;;;;;21.00;99.90;;;;;;5097626;28;19931;-45
2023/08/24 12:01:32;;;;;;;;;;;21.10;99.90;;;;;;5097448;28;20287;-46
2023/08/24 12:03:58;;;;;;;;;;;21.10;99.90;;;;;;5097246;28;19924;-45
2023/08/24 12:06:26;;;;;;;;;;;21.20;99.90;;;;;;5079231;28;19931;-46
2023/08/24 12:08:52;;;;;;;;;;;21.20;99.90;;;;;;5097142;28;19931;-46
2023/08/24 12:11:19;;;;;;;;;;;21.20;99.90;;;;;;5097192;28;19924;-45
2023/08/24 12:13:51;;;;;;;;;;;21.30;99.90;;;;;;5097018;28;19947;-45
2023/08/24 12:16:17;;;;;;;;;;;21.30;99.90;;;;;;5096976;28;20320;-45
2023/08/24 12:18:47;;;;;;;;;;;21.30;99.90;;;;;;5096925;28;20074;-45
2023/08/24 12:21:13;;;;;;;;;;;21.40;99.90;;;;;;5096574;28;20367;-45
2023/08/24 12:23:38;;;;;;;;;;;21.40;99.90;;;;;;5079051;28;19932;-45
2023/08/24 12:26:07;;;;;;;;;;;21.40;99.90;;;;;;5096287;28;19924;-45
2023/08/24 12:28:33;;;;;;;;;;;21.40;99.90;;;;;;5096790;28;19978;-45
2023/08/24 12:31:01;;;;;;;;;;;21.40;99.90;;;;;;5096730;28;20355;-46
2023/08/24 12:33:28;;;;;;;;;;;21.40;99.90;;;;;;5096707;28;19982;-45
2023/08/24 12:35:55;;;;;;;;;;;21.40;99.90;;;;;;5096687;28;20267;-46
2023/08/24 12:38:21;;;;;;;;;;;21.40;99.90;;;;;;5096718;28;19928;-46
2023/08/24 12:40:46;;;;;;;;;;;21.40;99.90;;;;;;5096638;28;20454;-47
2023/08/24 12:43:12;;;;;;;;;;;21.40;99.90;;;;;;5096412;28;19931;-45
2023/08/24 12:45:38;;;;;;;;;;;21.50;99.90;;;;;;5096668;28;19924;-46
2023/08/24 12:48:04;;;;;;;;;;;21.50;99.90;;;;;;5096244;28;19978;-45
2023/08/24 12:50:30;;;;;;;;;;;21.50;99.90;;;;;;5096336;28;19924;-45
2023/08/24 12:52:59;;;;;;;;;;;21.50;99.90;;;;;;5096420;28;20287;-45
2023/08/24 12:55:25;;;;;;;;;;;21.60;99.90;;;;;;5096344;28;19931;-46
2023/08/24 12:57:50;;;;;;;;;;;21.60;99.90;;;;;;5096344;28;20290;-46
2023/08/24 13:00:16;;;;;;;;;;;21.60;99.90;;;;;;5096231;28;19997;-45
2023/08/24 13:02:41;;;;;;;;;;;21.60;99.90;;;;;;5061676;28;19979;-45
2023/08/24 13:05:08;;;;;;;;;;;21.60;99.90;;;;;;5096157;28;19924;-45
2023/08/24 13:07:33;;;;;;;;;;;21.60;99.90;;;;;;5096021;28;19931;-45
2023/08/24 13:09:59;;;;;;;;;;;21.60;99.90;;;;;;5096110;28;19999;-45
2023/08/24 13:12:25;;;;;;;;;;;21.50;99.90;;;;;;5095746;28;20065;-45
2023/08/24 13:14:50;;;;;;;;;;;21.60;99.90;;;;;;5096144;28;19934;-45
2023/08/24 13:17:16;;;;;;;;;;;21.50;99.90;;;;;;5095955;28;19946;-45
2023/08/24 13:19:41;;;;;;;;;;;21.50;99.90;;;;;;5095674;28;20256;-46
2023/08/24 13:22:10;;;;;;;;;;;21.50;99.90;;;;;;5095932;28;20034;-45
2023/08/24 13:24:36;;;;;;;;;;;21.50;99.90;;;;;;5094862;28;19931;-45
2023/08/24 13:27:02;;;;;;;;;;;21.50;99.90;;;;;;5095714;28;19924;-45
2023/08/24 13:29:28;;;;;;;;;;;21.50;99.90;;;;;;5095768;28;19928;-45
2023/08/24 13:31:54;;;;;;;;;;;21.50;99.90;;;;;;5095662;28;19924;-46
2023/08/24 13:34:19;;;;;;;;;;;21.40;99.90;;;;;;5095361;28;20329;-45
2023/08/24 13:36:45;;;;;;;;;;;21.40;99.90;;;;;;5095443;28;19924;-45
2023/08/24 13:39:10;;;;;;;;;;;21.40;99.90;;;;;;5095472;28;19928;-45
2023/08/24 13:41:36;;;;;;;;;;;21.40;99.90;;;;;;5077784;28;19924;-43
2023/08/24 13:44:02;;;;;;;;;;;21.50;99.90;;;;;;5095302;28;19924;-44
2023/08/24 13:46:28;;;;;;;;;;;21.40;99.90;;;;;;5076422;28;19924;-44
2023/08/24 13:48:53;;;;;;;;;;;21.50;99.90;;;;;;5095025;28;19924;-44
2023/08/24 13:51:19;;;;;;;;;;;21.50;99.90;;;;;;5095227;28;19924;-44
2023/08/24 13:53:44;;;;;;;;;;;21.50;99.90;;;;;;5095275;28;19971;-45
2023/08/24 13:56:10;;;;;;;;;;;21.40;99.90;;;;;;5095237;28;19928;-45
2023/08/24 13:58:35;;;;;;;;;;;21.40;99.90;;;;;;5095150;28;19927;-45
2023/08/24 14:01:03;;;;;;;;;;;21.40;99.90;;;;;;5095094;28;20038;-45
2023/08/24 14:03:28;;;;;;;;;;;21.40;99.90;;;;;;5094825;28;19924;-45
2023/08/24 14:05:57;;;;;;;;;;;21.40;99.90;;;;;;5094980;28;19924;-46
2023/08/24 14:08:22;;;;;;;;;;;21.50;99.90;;;;;;5094821;28;19924;-46
2023/08/24 14:10:48;;;;;;;;;;;21.50;99.90;;;;;;5094938;28;19931;-45